Kettering, Ohio
Current Conditions -  °F | °C
As of 3:53 AM on Thursday 23 Oct 2014 (Local Time) from KMGY Reporting Station
Overcast Overcast  
Wind Chill: 44°   Ceiling: 3100
Heat Index: 44°   Visibility: 10mi
Dew Point: 40°   Wind: 0mph
Humidity: 85%   Direction: NA
Pressure: 30.25"   Gusts: NA
Location:  39.7°N, 84.16°W
Report Text: KMGY 230753Z AUTO 00000KT 10SM OVC031 07/04 A3025 RMK AO2 SLP247 T00670044
Loading
Personal Weather Stations






























Interactive Weather Map New forecast layout! Learn more

10-Day Weather Forecast

Advertisements
Track Severe Weather on mobile